Poplar Grove, IL (61065)

5:12 PM CST on January 29, 2015 (GMT -0600)
PG Elementary School | Change Station
CLOSE
Current Station
Personal Weather Station
Location: Poplar Grove, IL
Elevation: 906 ft
Nearby Weather Stations

Elev 906 ft 42.37 °N, 88.82 °W | Updated 2 minutes ago

Overcast
Overcast
33.7 °F
Feels Like 34 °F
N
3.0
Wind Variable Wind from WNW
Gusts 4.0 mph

Today
High -- | Low -- °F
--% Chance of Precip.
Yesterday
High -- | Low -- °F
Precip. -- in
7:12 AM 5:05 PM
Waxing Gibbous, 78% visible
Pressure 30.19 in
Visibility 10.0 miles
Clouds Overcast 3400 ft
Windchill 34 °F
Dew Point 29 °F
Humidity 82%
Rainfall 0.00 in
Snow Depth Not available.
UV 0 out of 12
Pollen .10 out of 12
Air Quality Not available.
Flu Activity Not available.
METAR KRFD 292254Z 32009KT 10SM OVC034 02/M04 A3016 RMK AO2 PK WND 34027/2217 SLP221 T00171039

More Conditions Fewer Conditions

Pressure 30.19 in
Visibility 10.0 miles
Clouds Overcast 3400 ft
Windchill 34 °F
Dew Point 29 °F
Humidity 82%
Rainfall 0.00 in
Snow Depth Not available.
UV 0 out of 12
Pollen .10 out of 12
Air Quality Not available.
Flu Activity Not available.
METAR KRFD 292254Z 32009KT 10SM OVC034 02/M04 A3016 RMK AO2 PK WND 34027/2217 SLP221 T00171039

More Conditions Fewer Conditions

10-Day Weather Forecast

Almanac

Astronomy

Jan. 29, 2015 Rise Set
Actual Time
Civil Twilight
Nautical Twilight
Astronomical Twilight
Moon
Length of Visible Light
Length of Day
Tomorrow will be .
, % of the Moon is Illuminated

Today's Extremes

State Highs State Lows

Community

WunderPhotos

Upload Photos

1,791,639 photos uploaded!

WunderBlogs® & News

Nearby

Air Quality

  Air Quality AQ Index Pollutant
Not available.

Snow Depth

Station Depth Elevation

Earthquake Activity

City Distance Mag. Time & Date
Minimum magnitude displayed is 2.5.

Coastal Water Temperatures

Place Temperature

Nearby Weather Stations